sensor_id;sensor_type;location;lat;lon;timestamp;temperature;humidity
6672;DHT22;3372;48.690;12.362;2022-09-09T00:02:23;17.60;45.20
6672;DHT22;3372;48.690;12.362;2022-09-09T00:05:12;17.50;44.60
6672;DHT22;3372;48.690;12.362;2022-09-09T00:07:50;17.50;44.90
6672;DHT22;3372;48.690;12.362;2022-09-09T00:10:23;17.40;45.60
6672;DHT22;3372;48.690;12.362;2022-09-09T00:13:46;17.30;45.00
6672;DHT22;3372;48.690;12.362;2022-09-09T00:18:37;17.40;45.60
6672;DHT22;3372;48.690;12.362;2022-09-09T00:21:07;17.30;44.80
6672;DHT22;3372;48.690;12.362;2022-09-09T00:23:43;17.40;45.00
6672;DHT22;3372;48.690;12.362;2022-09-09T00:29:03;17.30;45.40
6672;DHT22;3372;48.690;12.362;2022-09-09T00:31:31;17.30;45.00
6672;DHT22;3372;48.690;12.362;2022-09-09T00:34:09;17.30;44.90
6672;DHT22;3372;48.690;12.362;2022-09-09T00:36:38;17.30;45.00
6672;DHT22;3372;48.690;12.362;2022-09-09T00:39:04;17.30;45.30
6672;DHT22;3372;48.690;12.362;2022-09-09T00:41:59;17.30;44.90
6672;DHT22;3372;48.690;12.362;2022-09-09T00:44:33;17.30;44.90
6672;DHT22;3372;48.690;12.362;2022-09-09T00:50:08;17.20;45.00
6672;DHT22;3372;48.690;12.362;2022-09-09T00:53:05;17.20;45.00
6672;DHT22;3372;48.690;12.362;2022-09-09T00:58:17;17.10;44.70
6672;DHT22;3372;48.690;12.362;2022-09-09T01:01:02;17.00;44.70
6672;DHT22;3372;48.690;12.362;2022-09-09T01:03:43;17.00;44.20
6672;DHT22;3372;48.690;12.362;2022-09-09T01:06:20;16.90;44.20
6672;DHT22;3372;48.690;12.362;2022-09-09T01:12:15;16.80;44.30
6672;DHT22;3372;48.690;12.362;2022-09-09T01:14:55;16.80;44.50
6672;DHT22;3372;48.690;12.362;2022-09-09T01:17:30;16.80;44.20
6672;DHT22;3372;48.690;12.362;2022-09-09T01:20:23;16.80;43.50
6672;DHT22;3372;48.690;12.362;2022-09-09T01:28:18;16.60;43.60
6672;DHT22;3372;48.690;12.362;2022-09-09T01:30:47;16.60;44.30
6672;DHT22;3372;48.690;12.362;2022-09-09T01:33:16;16.60;42.90
6672;DHT22;3372;48.690;12.362;2022-09-09T01:38:14;16.50;44.20
6672;DHT22;3372;48.690;12.362;2022-09-09T01:40:40;16.40;44.10
6672;DHT22;3372;48.690;12.362;2022-09-09T01:43:06;16.40;44.40
6672;DHT22;3372;48.690;12.362;2022-09-09T01:45:33;16.50;44.80
6672;DHT22;3372;48.690;12.362;2022-09-09T01:47:59;16.50;44.20
6672;DHT22;3372;48.690;12.362;2022-09-09T01:50:26;16.50;43.50
6672;DHT22;3372;48.690;12.362;2022-09-09T01:52:58;16.50;44.20
6672;DHT22;3372;48.690;12.362;2022-09-09T01:55:39;16.50;44.10
6672;DHT22;3372;48.690;12.362;2022-09-09T01:58:39;16.50;44.20
6672;DHT22;3372;48.690;12.362;2022-09-09T02:04:05;16.50;44.80
6672;DHT22;3372;48.690;12.362;2022-09-09T02:06:36;16.50;43.40
6672;DHT22;3372;48.690;12.362;2022-09-09T02:09:05;16.40;43.60
6672;DHT22;3372;48.690;12.362;2022-09-09T02:11:32;16.40;43.60
6672;DHT22;3372;48.690;12.362;2022-09-09T02:14:03;16.40;43.10
6672;DHT22;3372;48.690;12.362;2022-09-09T02:16:39;16.40;43.10
6672;DHT22;3372;48.690;12.362;2022-09-09T02:19:14;16.40;44.10
6672;DHT22;3372;48.690;12.362;2022-09-09T02:21:43;16.40;43.10
6672;DHT22;3372;48.690;12.362;2022-09-09T02:24:12;16.30;43.10
6672;DHT22;3372;48.690;12.362;2022-09-09T02:26:41;16.30;43.30
6672;DHT22;3372;48.690;12.362;2022-09-09T02:29:23;16.30;43.50
6672;DHT22;3372;48.690;12.362;2022-09-09T02:31:51;16.30;43.90
6672;DHT22;3372;48.690;12.362;2022-09-09T02:34:21;16.30;43.30
6672;DHT22;3372;48.690;12.362;2022-09-09T02:36:50;16.20;45.10
6672;DHT22;3372;48.690;12.362;2022-09-09T02:39:18;16.20;45.70
6672;DHT22;3372;48.690;12.362;2022-09-09T02:41:44;16.30;48.30
6672;DHT22;3372;48.690;12.362;2022-09-09T02:44:14;16.30;48.10
6672;DHT22;3372;48.690;12.362;2022-09-09T02:47:16;16.30;49.40
6672;DHT22;3372;48.690;12.362;2022-09-09T02:50:05;16.30;51.50
6672;DHT22;3372;48.690;12.362;2022-09-09T02:52:45;16.40;51.70
6672;DHT22;3372;48.690;12.362;2022-09-09T02:57:47;16.40;51.50
6672;DHT22;3372;48.690;12.362;2022-09-09T03:00:14;16.40;50.50
6672;DHT22;3372;48.690;12.362;2022-09-09T03:02:40;16.40;49.90
6672;DHT22;3372;48.690;12.362;2022-09-09T03:05:08;16.50;49.30
6672;DHT22;3372;48.690;12.362;2022-09-09T03:07:33;16.50;49.30
6672;DHT22;3372;48.690;12.362;2022-09-09T03:09:59;16.50;49.10
6672;DHT22;3372;48.690;12.362;2022-09-09T03:12:24;16.50;48.90
6672;DHT22;3372;48.690;12.362;2022-09-09T03:14:50;16.50;48.00
6672;DHT22;3372;48.690;12.362;2022-09-09T03:17:16;16.50;47.30
6672;DHT22;3372;48.690;12.362;2022-09-09T03:19:42;16.40;46.70
6672;DHT22;3372;48.690;12.362;2022-09-09T03:22:10;16.40;46.60
6672;DHT22;3372;48.690;12.362;2022-09-09T03:24:35;16.40;46.10
6672;DHT22;3372;48.690;12.362;2022-09-09T03:27:01;16.40;45.70
6672;DHT22;3372;48.690;12.362;2022-09-09T03:29:26;16.40;45.60
6672;DHT22;3372;48.690;12.362;2022-09-09T03:31:52;16.30;45.30
6672;DHT22;3372;48.690;12.362;2022-09-09T03:34:18;16.30;45.30
6672;DHT22;3372;48.690;12.362;2022-09-09T03:36:43;16.30;46.10
6672;DHT22;3372;48.690;12.362;2022-09-09T03:39:09;16.20;45.00
6672;DHT22;3372;48.690;12.362;2022-09-09T03:41:34;16.20;44.20
6672;DHT22;3372;48.690;12.362;2022-09-09T03:44:01;16.10;44.00
6672;DHT22;3372;48.690;12.362;2022-09-09T03:46:27;16.10;44.00
6672;DHT22;3372;48.690;12.362;2022-09-09T03:48:53;16.10;43.80
6672;DHT22;3372;48.690;12.362;2022-09-09T03:51:19;16.10;43.80
6672;DHT22;3372;48.690;12.362;2022-09-09T03:53:45;16.00;43.70
6672;DHT22;3372;48.690;12.362;2022-09-09T03:56:10;16.00;43.70
6672;DHT22;3372;48.690;12.362;2022-09-09T03:58:37;16.00;43.50
6672;DHT22;3372;48.690;12.362;2022-09-09T04:01:06;15.90;43.50
6672;DHT22;3372;48.690;12.362;2022-09-09T04:03:33;15.90;43.60
6672;DHT22;3372;48.690;12.362;2022-09-09T04:06:03;15.80;43.20
6672;DHT22;3372;48.690;12.362;2022-09-09T04:08:30;15.90;43.30
6672;DHT22;3372;48.690;12.362;2022-09-09T04:10:57;15.80;42.80
6672;DHT22;3372;48.690;12.362;2022-09-09T04:13:24;15.70;42.50
6672;DHT22;3372;48.690;12.362;2022-09-09T04:15:51;15.70;42.50
6672;DHT22;3372;48.690;12.362;2022-09-09T04:18:18;15.60;42.00
6672;DHT22;3372;48.690;12.362;2022-09-09T04:20:46;15.50;42.40
6672;DHT22;3372;48.690;12.362;2022-09-09T04:23:13;15.50;42.30
6672;DHT22;3372;48.690;12.362;2022-09-09T04:25:45;15.50;42.20
6672;DHT22;3372;48.690;12.362;2022-09-09T04:28:13;15.50;42.20
6672;DHT22;3372;48.690;12.362;2022-09-09T04:30:39;15.50;42.30
6672;DHT22;3372;48.690;12.362;2022-09-09T04:33:05;15.30;41.90
6672;DHT22;3372;48.690;12.362;2022-09-09T04:35:32;15.30;42.40
6672;DHT22;3372;48.690;12.362;2022-09-09T04:37:57;15.20;42.50
6672;DHT22;3372;48.690;12.362;2022-09-09T04:40:23;15.20;43.70
6672;DHT22;3372;48.690;12.362;2022-09-09T04:42:50;15.20;42.60
6672;DHT22;3372;48.690;12.362;2022-09-09T04:45:16;15.20;42.50
6672;DHT22;3372;48.690;12.362;2022-09-09T04:47:42;15.20;43.00
6672;DHT22;3372;48.690;12.362;2022-09-09T04:50:08;15.20;43.00
6672;DHT22;3372;48.690;12.362;2022-09-09T04:52:35;15.20;43.00
6672;DHT22;3372;48.690;12.362;2022-09-09T04:55:01;15.20;43.00
6672;DHT22;3372;48.690;12.362;2022-09-09T04:57:27;15.20;43.00
6672;DHT22;3372;48.690;12.362;2022-09-09T04:59:54;15.30;42.70
6672;DHT22;3372;48.690;12.362;2022-09-09T05:02:22;15.20;42.60
6672;DHT22;3372;48.690;12.362;2022-09-09T05:04:48;15.20;42.80
6672;DHT22;3372;48.690;12.362;2022-09-09T05:07:15;15.20;42.90
6672;DHT22;3372;48.690;12.362;2022-09-09T05:09:40;15.20;42.60
6672;DHT22;3372;48.690;12.362;2022-09-09T05:12:06;15.20;43.00
6672;DHT22;3372;48.690;12.362;2022-09-09T05:14:32;15.10;43.00
6672;DHT22;3372;48.690;12.362;2022-09-09T05:16:57;15.00;44.00
6672;DHT22;3372;48.690;12.362;2022-09-09T05:19:23;15.10;43.80
6672;DHT22;3372;48.690;12.362;2022-09-09T05:21:49;15.20;43.70
6672;DHT22;3372;48.690;12.362;2022-09-09T05:24:15;15.20;43.20
6672;DHT22;3372;48.690;12.362;2022-09-09T05:26:42;15.20;43.40
6672;DHT22;3372;48.690;12.362;2022-09-09T05:29:08;15.20;43.60
6672;DHT22;3372;48.690;12.362;2022-09-09T05:31:34;15.20;44.00
6672;DHT22;3372;48.690;12.362;2022-09-09T05:33:59;15.20;44.10
6672;DHT22;3372;48.690;12.362;2022-09-09T05:36:25;15.10;43.70
6672;DHT22;3372;48.690;12.362;2022-09-09T05:38:51;15.10;44.40
6672;DHT22;3372;48.690;12.362;2022-09-09T05:41:19;15.10;44.30
6672;DHT22;3372;48.690;12.362;2022-09-09T05:43:46;15.20;44.10
6672;DHT22;3372;48.690;12.362;2022-09-09T05:46:19;15.20;43.70
6672;DHT22;3372;48.690;12.362;2022-09-09T05:48:46;15.20;44.20
6672;DHT22;3372;48.690;12.362;2022-09-09T05:51:15;15.30;45.40
6672;DHT22;3372;48.690;12.362;2022-09-09T05:53:42;15.30;45.60
6672;DHT22;3372;48.690;12.362;2022-09-09T05:56:10;15.10;46.20
6672;DHT22;3372;48.690;12.362;2022-09-09T05:58:37;15.10;46.90
6672;DHT22;3372;48.690;12.362;2022-09-09T06:01:04;15.10;47.70
6672;DHT22;3372;48.690;12.362;2022-09-09T06:03:30;15.30;47.00
6672;DHT22;3372;48.690;12.362;2022-09-09T06:05:58;15.30;46.30
6672;DHT22;3372;48.690;12.362;2022-09-09T06:08:24;15.30;46.10
6672;DHT22;3372;48.690;12.362;2022-09-09T06:10:49;15.30;46.20
6672;DHT22;3372;48.690;12.362;2022-09-09T06:13:15;15.40;45.70
6672;DHT22;3372;48.690;12.362;2022-09-09T06:15:49;15.60;45.30
6672;DHT22;3372;48.690;12.362;2022-09-09T06:18:15;15.90;46.60
6672;DHT22;3372;48.690;12.362;2022-09-09T06:20:52;16.40;44.30
6672;DHT22;3372;48.690;12.362;2022-09-09T06:23:19;16.50;44.70
6672;DHT22;3372;48.690;12.362;2022-09-09T06:25:45;16.60;45.10
6672;DHT22;3372;48.690;12.362;2022-09-09T06:28:11;16.60;44.80
6672;DHT22;3372;48.690;12.362;2022-09-09T06:30:37;16.70;46.40
6672;DHT22;3372;48.690;12.362;2022-09-09T06:33:02;16.90;47.60
6672;DHT22;3372;48.690;12.362;2022-09-09T06:35:29;16.90;47.30
6672;DHT22;3372;48.690;12.362;2022-09-09T06:37:54;17.10;49.20
6672;DHT22;3372;48.690;12.362;2022-09-09T06:40:20;17.00;48.70
6672;DHT22;3372;48.690;12.362;2022-09-09T06:42:45;17.20;49.00
6672;DHT22;3372;48.690;12.362;2022-09-09T06:45:11;17.30;48.90
6672;DHT22;3372;48.690;12.362;2022-09-09T06:47:37;17.20;47.70
6672;DHT22;3372;48.690;12.362;2022-09-09T06:50:02;16.90;48.20
6672;DHT22;3372;48.690;12.362;2022-09-09T06:52:28;16.70;48.30
6672;DHT22;3372;48.690;12.362;2022-09-09T06:54:54;16.50;49.10
6672;DHT22;3372;48.690;12.362;2022-09-09T06:57:19;16.60;48.80
6672;DHT22;3372;48.690;12.362;2022-09-09T06:59:45;16.60;48.60
6672;DHT22;3372;48.690;12.362;2022-09-09T07:02:11;16.60;48.60
6672;DHT22;3372;48.690;12.362;2022-09-09T07:04:36;16.50;48.60
6672;DHT22;3372;48.690;12.362;2022-09-09T07:07:02;16.60;48.30
6672;DHT22;3372;48.690;12.362;2022-09-09T07:09:28;16.60;48.50
6672;DHT22;3372;48.690;12.362;2022-09-09T07:11:55;16.60;48.60
6672;DHT22;3372;48.690;12.362;2022-09-09T07:14:20;16.60;48.10
6672;DHT22;3372;48.690;12.362;2022-09-09T07:16:47;16.60;48.20
6672;DHT22;3372;48.690;12.362;2022-09-09T07:19:13;16.60;48.20
6672;DHT22;3372;48.690;12.362;2022-09-09T07:21:40;16.70;48.70
6672;DHT22;3372;48.690;12.362;2022-09-09T07:24:05;16.60;49.50
6672;DHT22;3372;48.690;12.362;2022-09-09T07:26:33;16.60;49.10
6672;DHT22;3372;48.690;12.362;2022-09-09T07:28:59;16.70;48.70
6672;DHT22;3372;48.690;12.362;2022-09-09T07:31:30;16.80;49.20
6672;DHT22;3372;48.690;12.362;2022-09-09T07:33:57;16.80;49.30
6672;DHT22;3372;48.690;12.362;2022-09-09T07:36:25;16.70;49.00
6672;DHT22;3372;48.690;12.362;2022-09-09T07:38:56;16.70;49.40
6672;DHT22;3372;48.690;12.362;2022-09-09T07:41:25;16.70;50.20
6672;DHT22;3372;48.690;12.362;2022-09-09T07:43:51;16.80;49.70
6672;DHT22;3372;48.690;12.362;2022-09-09T07:46:20;16.90;49.80
6672;DHT22;3372;48.690;12.362;2022-09-09T07:48:56;16.80;50.80
6672;DHT22;3372;48.690;12.362;2022-09-09T07:51:29;16.80;51.50
6672;DHT22;3372;48.690;12.362;2022-09-09T07:53:58;16.90;52.30
6672;DHT22;3372;48.690;12.362;2022-09-09T07:56:25;16.70;53.40
6672;DHT22;3372;48.690;12.362;2022-09-09T07:58:52;16.90;53.20
6672;DHT22;3372;48.690;12.362;2022-09-09T08:01:24;16.90;54.80
6672;DHT22;3372;48.690;12.362;2022-09-09T08:03:58;16.90;57.60
6672;DHT22;3372;48.690;12.362;2022-09-09T08:06:29;16.90;57.60
6672;DHT22;3372;48.690;12.362;2022-09-09T08:08:55;16.90;57.30
6672;DHT22;3372;48.690;12.362;2022-09-09T08:11:22;16.80;59.10
6672;DHT22;3372;48.690;12.362;2022-09-09T08:13:50;16.80;60.80
6672;DHT22;3372;48.690;12.362;2022-09-09T08:16:21;16.90;60.40
6672;DHT22;3372;48.690;12.362;2022-09-09T08:18:51;16.90;60.50
6672;DHT22;3372;48.690;12.362;2022-09-09T08:21:21;17.00;59.00
6672;DHT22;3372;48.690;12.362;2022-09-09T08:23:47;17.10;58.80
6672;DHT22;3372;48.690;12.362;2022-09-09T08:26:16;17.10;59.10
6672;DHT22;3372;48.690;12.362;2022-09-09T08:28:43;17.20;58.60
6672;DHT22;3372;48.690;12.362;2022-09-09T08:31:20;17.20;58.20
6672;DHT22;3372;48.690;12.362;2022-09-09T08:33:47;17.30;58.50
6672;DHT22;3372;48.690;12.362;2022-09-09T08:36:19;17.30;58.20
6672;DHT22;3372;48.690;12.362;2022-09-09T08:38:50;17.40;57.40
6672;DHT22;3372;48.690;12.362;2022-09-09T08:52:52;17.60;57.50
6672;DHT22;3372;48.690;12.362;2022-09-09T08:55:21;17.70;58.80
6672;DHT22;3372;48.690;12.362;2022-09-09T08:57:50;17.70;57.10
6672;DHT22;3372;48.690;12.362;2022-09-09T09:00:17;17.80;57.00
6672;DHT22;3372;48.690;12.362;2022-09-09T09:03:09;17.80;57.80
6672;DHT22;3372;48.690;12.362;2022-09-09T09:05:59;17.80;59.00
6672;DHT22;3372;48.690;12.362;2022-09-09T09:11:03;17.90;57.40
6672;DHT22;3372;48.690;12.362;2022-09-09T09:13:43;17.90;56.90
6672;DHT22;3372;48.690;12.362;2022-09-09T09:16:33;17.90;57.40
6672;DHT22;3372;48.690;12.362;2022-09-09T09:19:00;17.90;58.90
6672;DHT22;3372;48.690;12.362;2022-09-09T09:24:05;18.00;59.00
6672;DHT22;3372;48.690;12.362;2022-09-09T09:26:34;18.00;57.90
6672;DHT22;3372;48.690;12.362;2022-09-09T09:29:11;18.10;58.70
6672;DHT22;3372;48.690;12.362;2022-09-09T09:31:37;18.10;59.40
6672;DHT22;3372;48.690;12.362;2022-09-09T09:34:03;18.10;58.50
6672;DHT22;3372;48.690;12.362;2022-09-09T09:36:41;18.10;60.30
6672;DHT22;3372;48.690;12.362;2022-09-09T09:39:08;18.00;64.70
6672;DHT22;3372;48.690;12.362;2022-09-09T09:41:38;18.00;62.90
6672;DHT22;3372;48.690;12.362;2022-09-09T09:44:05;18.00;62.30
6672;DHT22;3372;48.690;12.362;2022-09-09T09:46:31;18.10;62.00
6672;DHT22;3372;48.690;12.362;2022-09-09T09:49:05;18.10;62.90
6672;DHT22;3372;48.690;12.362;2022-09-09T09:51:35;18.10;62.70
6672;DHT22;3372;48.690;12.362;2022-09-09T09:56:41;18.10;65.00
6672;DHT22;3372;48.690;12.362;2022-09-09T10:01:54;18.00;64.20
6672;DHT22;3372;48.690;12.362;2022-09-09T10:04:23;18.00;64.30
6672;DHT22;3372;48.690;12.362;2022-09-09T10:06:50;18.00;65.30
6672;DHT22;3372;48.690;12.362;2022-09-09T10:11:59;17.90;66.30
6672;DHT22;3372;48.690;12.362;2022-09-09T10:17:29;17.90;66.20
6672;DHT22;3372;48.690;12.362;2022-09-09T10:23:21;18.00;66.00
6672;DHT22;3372;48.690;12.362;2022-09-09T10:29:10;18.00;67.60
6672;DHT22;3372;48.690;12.362;2022-09-09T10:31:51;17.90;69.80
6672;DHT22;3372;48.690;12.362;2022-09-09T10:36:56;17.90;69.60
6672;DHT22;3372;48.690;12.362;2022-09-09T10:39:37;18.00;70.00
6672;DHT22;3372;48.690;12.362;2022-09-09T10:42:16;18.00;73.80
6672;DHT22;3372;48.690;12.362;2022-09-09T10:53:02;17.90;78.10
6672;DHT22;3372;48.690;12.362;2022-09-09T10:55:35;17.90;81.30
6672;DHT22;3372;48.690;12.362;2022-09-09T10:58:03;17.80;84.40
6672;DHT22;3372;48.690;12.362;2022-09-09T11:03:33;18.00;87.10
6672;DHT22;3372;48.690;12.362;2022-09-09T11:06:05;18.00;87.70
6672;DHT22;3372;48.690;12.362;2022-09-09T11:08:35;18.10;90.60
6672;DHT22;3372;48.690;12.362;2022-09-09T11:11:19;18.00;90.90
6672;DHT22;3372;48.690;12.362;2022-09-09T11:14:19;18.10;91.50
6672;DHT22;3372;48.690;12.362;2022-09-09T11:17:01;18.00;91.30
6672;DHT22;3372;48.690;12.362;2022-09-09T11:19:33;18.00;92.30
6672;DHT22;3372;48.690;12.362;2022-09-09T11:22:12;18.00;92.10
6672;DHT22;3372;48.690;12.362;2022-09-09T11:24:59;18.00;93.10
6672;DHT22;3372;48.690;12.362;2022-09-09T11:27:31;18.10;94.00
6672;DHT22;3372;48.690;12.362;2022-09-09T11:38:18;18.20;93.90
6672;DHT22;3372;48.690;12.362;2022-09-09T11:40:46;18.30;93.90
6672;DHT22;3372;48.690;12.362;2022-09-09T11:43:27;18.50;93.20
6672;DHT22;3372;48.690;12.362;2022-09-09T11:45:58;18.60;93.30
6672;DHT22;3372;48.690;12.362;2022-09-09T11:48:26;18.70;93.50
6672;DHT22;3372;48.690;12.362;2022-09-09T11:50:58;18.80;93.00
6672;DHT22;3372;48.690;12.362;2022-09-09T11:53:24;18.80;91.90
6672;DHT22;3372;48.690;12.362;2022-09-09T11:56:11;18.90;91.70
6672;DHT22;3372;48.690;12.362;2022-09-09T11:59:02;19.00;92.10
6672;DHT22;3372;48.690;12.362;2022-09-09T12:01:40;19.20;91.10
6672;DHT22;3372;48.690;12.362;2022-09-09T12:04:27;19.40;90.80
6672;DHT22;3372;48.690;12.362;2022-09-09T12:06:58;19.30;87.80
6672;DHT22;3372;48.690;12.362;2022-09-09T12:10:05;19.30;85.50
6672;DHT22;3372;48.690;12.362;2022-09-09T12:12:34;19.50;86.80
6672;DHT22;3372;48.690;12.362;2022-09-09T12:15:16;19.50;84.10
6672;DHT22;3372;48.690;12.362;2022-09-09T12:17:52;19.50;80.90
6672;DHT22;3372;48.690;12.362;2022-09-09T12:20:31;19.60;81.90
6672;DHT22;3372;48.690;12.362;2022-09-09T12:23:09;19.90;79.10
6672;DHT22;3372;48.690;12.362;2022-09-09T12:31:34;20.10;72.30
6672;DHT22;3372;48.690;12.362;2022-09-09T12:34:15;20.30;66.90
6672;DHT22;3372;48.690;12.362;2022-09-09T12:36:44;20.30;65.00
6672;DHT22;3372;48.690;12.362;2022-09-09T12:39:26;20.20;65.80
6672;DHT22;3372;48.690;12.362;2022-09-09T12:41:54;20.10;66.80
6672;DHT22;3372;48.690;12.362;2022-09-09T12:44:22;20.10;66.00
6672;DHT22;3372;48.690;12.362;2022-09-09T12:46:48;20.30;64.90
6672;DHT22;3372;48.690;12.362;2022-09-09T12:49:40;20.40;62.50
6672;DHT22;3372;48.690;12.362;2022-09-09T12:52:23;20.50;62.00
6672;DHT22;3372;48.690;12.362;2022-09-09T12:54:52;20.60;61.90
6672;DHT22;3372;48.690;12.362;2022-09-09T12:57:19;20.60;62.30
6672;DHT22;3372;48.690;12.362;2022-09-09T12:59:47;20.40;61.30
6672;DHT22;3372;48.690;12.362;2022-09-09T13:02:19;20.50;61.40
6672;DHT22;3372;48.690;12.362;2022-09-09T13:04:45;20.50;60.60
6672;DHT22;3372;48.690;12.362;2022-09-09T13:07:13;20.40;60.20
6672;DHT22;3372;48.690;12.362;2022-09-09T13:09:39;20.50;60.30
6672;DHT22;3372;48.690;12.362;2022-09-09T13:12:06;20.60;59.50
6672;DHT22;3372;48.690;12.362;2022-09-09T13:14:37;20.50;59.60
6672;DHT22;3372;48.690;12.362;2022-09-09T13:17:05;20.60;59.50
6672;DHT22;3372;48.690;12.362;2022-09-09T13:19:38;20.50;58.20
6672;DHT22;3372;48.690;12.362;2022-09-09T13:22:34;20.60;59.00
6672;DHT22;3372;48.690;12.362;2022-09-09T13:27:39;20.60;61.70
6672;DHT22;3372;48.690;12.362;2022-09-09T13:30:25;20.80;58.50
6672;DHT22;3372;48.690;12.362;2022-09-09T13:33:23;20.70;59.20
6672;DHT22;3372;48.690;12.362;2022-09-09T13:35:56;20.80;58.80
6672;DHT22;3372;48.690;12.362;2022-09-09T13:38:22;20.80;57.00
6672;DHT22;3372;48.690;12.362;2022-09-09T13:41:02;20.90;54.50
6672;DHT22;3372;48.690;12.362;2022-09-09T13:43:31;21.00;54.40
6672;DHT22;3372;48.690;12.362;2022-09-09T13:46:01;21.00;54.50
6672;DHT22;3372;48.690;12.362;2022-09-09T13:48:27;21.10;56.50
6672;DHT22;3372;48.690;12.362;2022-09-09T13:50:55;21.20;54.10
6672;DHT22;3372;48.690;12.362;2022-09-09T13:53:21;21.20;53.20
6672;DHT22;3372;48.690;12.362;2022-09-09T13:55:46;21.20;50.70
6672;DHT22;3372;48.690;12.362;2022-09-09T13:58:16;21.30;51.10
6672;DHT22;3372;48.690;12.362;2022-09-09T14:00:44;21.30;48.80
6672;DHT22;3372;48.690;12.362;2022-09-09T14:03:10;21.30;48.90
6672;DHT22;3372;48.690;12.362;2022-09-09T14:05:36;21.20;46.50
6672;DHT22;3372;48.690;12.362;2022-09-09T14:08:06;21.30;49.20
6672;DHT22;3372;48.690;12.362;2022-09-09T14:10:33;21.20;48.50
6672;DHT22;3372;48.690;12.362;2022-09-09T14:13:02;21.20;48.70
6672;DHT22;3372;48.690;12.362;2022-09-09T14:15:28;21.20;47.00
6672;DHT22;3372;48.690;12.362;2022-09-09T14:17:54;21.10;47.20
6672;DHT22;3372;48.690;12.362;2022-09-09T14:20:20;21.20;48.00
6672;DHT22;3372;48.690;12.362;2022-09-09T14:22:46;21.30;47.90
6672;DHT22;3372;48.690;12.362;2022-09-09T14:25:11;21.20;47.40
6672;DHT22;3372;48.690;12.362;2022-09-09T14:27:39;21.30;46.90
6672;DHT22;3372;48.690;12.362;2022-09-09T14:30:05;21.30;45.70
6672;DHT22;3372;48.690;12.362;2022-09-09T14:32:31;21.40;47.30
6672;DHT22;3372;48.690;12.362;2022-09-09T14:34:58;21.40;47.30
6672;DHT22;3372;48.690;12.362;2022-09-09T14:37:24;21.20;46.10
6672;DHT22;3372;48.690;12.362;2022-09-09T14:39:49;21.00;45.60
6672;DHT22;3372;48.690;12.362;2022-09-09T14:42:16;21.10;45.60
6672;DHT22;3372;48.690;12.362;2022-09-09T14:44:41;21.20;44.90
6672;DHT22;3372;48.690;12.362;2022-09-09T14:47:07;21.30;45.40
6672;DHT22;3372;48.690;12.362;2022-09-09T14:49:34;21.40;44.50
6672;DHT22;3372;48.690;12.362;2022-09-09T14:52:04;21.40;43.80
6672;DHT22;3372;48.690;12.362;2022-09-09T14:54:30;21.40;41.10
6672;DHT22;3372;48.690;12.362;2022-09-09T14:56:56;21.40;39.90
6672;DHT22;3372;48.690;12.362;2022-09-09T14:59:23;21.40;38.60
6672;DHT22;3372;48.690;12.362;2022-09-09T15:01:48;21.20;38.20
6672;DHT22;3372;48.690;12.362;2022-09-09T15:04:14;21.10;40.30
6672;DHT22;3372;48.690;12.362;2022-09-09T15:06:43;20.90;38.00
6672;DHT22;3372;48.690;12.362;2022-09-09T15:09:12;20.90;39.00
6672;DHT22;3372;48.690;12.362;2022-09-09T15:11:38;21.00;39.00
6672;DHT22;3372;48.690;12.362;2022-09-09T15:14:08;21.00;40.50
6672;DHT22;3372;48.690;12.362;2022-09-09T15:16:34;20.90;39.10
6672;DHT22;3372;48.690;12.362;2022-09-09T15:19:01;21.00;39.00
6672;DHT22;3372;48.690;12.362;2022-09-09T15:21:30;21.20;38.60
6672;DHT22;3372;48.690;12.362;2022-09-09T15:23:56;21.20;37.20
6672;DHT22;3372;48.690;12.362;2022-09-09T15:26:22;21.20;37.40
6672;DHT22;3372;48.690;12.362;2022-09-09T15:28:48;21.10;39.10
6672;DHT22;3372;48.690;12.362;2022-09-09T15:31:29;21.00;37.90
6672;DHT22;3372;48.690;12.362;2022-09-09T15:33:57;20.90;39.20
6672;DHT22;3372;48.690;12.362;2022-09-09T15:36:28;20.80;40.40
6672;DHT22;3372;48.690;12.362;2022-09-09T15:38:55;20.70;39.60
6672;DHT22;3372;48.690;12.362;2022-09-09T15:41:21;20.80;40.20
6672;DHT22;3372;48.690;12.362;2022-09-09T15:43:49;20.80;40.00
6672;DHT22;3372;48.690;12.362;2022-09-09T15:46:34;20.70;40.60
6672;DHT22;3372;48.690;12.362;2022-09-09T15:51:36;20.50;39.60
6672;DHT22;3372;48.690;12.362;2022-09-09T15:54:05;20.50;39.60
6672;DHT22;3372;48.690;12.362;2022-09-09T15:56:31;20.50;39.50
6672;DHT22;3372;48.690;12.362;2022-09-09T15:58:58;20.40;40.10
6672;DHT22;3372;48.690;12.362;2022-09-09T16:01:25;20.40;40.40
6672;DHT22;3372;48.690;12.362;2022-09-09T16:03:52;20.30;40.80
6672;DHT22;3372;48.690;12.362;2022-09-09T16:06:23;20.30;40.20
6672;DHT22;3372;48.690;12.362;2022-09-09T16:08:51;20.30;41.20
6672;DHT22;3372;48.690;12.362;2022-09-09T16:11:19;20.20;41.30
6672;DHT22;3372;48.690;12.362;2022-09-09T16:13:46;20.20;41.30
6672;DHT22;3372;48.690;12.362;2022-09-09T16:16:15;20.30;41.90
6672;DHT22;3372;48.690;12.362;2022-09-09T16:18:43;20.20;42.20
6672;DHT22;3372;48.690;12.362;2022-09-09T16:21:22;20.20;42.50
6672;DHT22;3372;48.690;12.362;2022-09-09T16:23:50;20.30;42.70
6672;DHT22;3372;48.690;12.362;2022-09-09T16:26:17;20.20;42.70
6672;DHT22;3372;48.690;12.362;2022-09-09T16:28:43;20.20;43.10
6672;DHT22;3372;48.690;12.362;2022-09-09T16:31:13;20.20;43.30
6672;DHT22;3372;48.690;12.362;2022-09-09T16:33:40;20.20;43.20
6672;DHT22;3372;48.690;12.362;2022-09-09T16:36:12;20.10;43.10
6672;DHT22;3372;48.690;12.362;2022-09-09T16:38:40;20.10;43.00
6672;DHT22;3372;48.690;12.362;2022-09-09T16:41:08;20.10;43.30
6672;DHT22;3372;48.690;12.362;2022-09-09T16:43:35;20.10;43.30
6672;DHT22;3372;48.690;12.362;2022-09-09T16:46:02;20.10;43.40
6672;DHT22;3372;48.690;12.362;2022-09-09T16:48:32;20.10;43.10
6672;DHT22;3372;48.690;12.362;2022-09-09T16:51:06;20.10;43.50
6672;DHT22;3372;48.690;12.362;2022-09-09T16:53:33;20.10;43.70
6672;DHT22;3372;48.690;12.362;2022-09-09T16:56:07;20.00;44.00
6672;DHT22;3372;48.690;12.362;2022-09-09T16:58:34;20.00;44.30
6672;DHT22;3372;48.690;12.362;2022-09-09T17:01:00;20.00;44.50
6672;DHT22;3372;48.690;12.362;2022-09-09T17:03:28;20.00;45.20
6672;DHT22;3372;48.690;12.362;2022-09-09T17:05:54;20.00;45.30
6672;DHT22;3372;48.690;12.362;2022-09-09T17:08:20;20.00;45.40
6672;DHT22;3372;48.690;12.362;2022-09-09T17:10:45;20.10;45.90
6672;DHT22;3372;48.690;12.362;2022-09-09T17:13:12;20.00;46.50
6672;DHT22;3372;48.690;12.362;2022-09-09T17:15:42;19.90;46.40
6672;DHT22;3372;48.690;12.362;2022-09-09T17:18:09;20.00;46.30
6672;DHT22;3372;48.690;12.362;2022-09-09T17:20:39;19.90;46.50
6672;DHT22;3372;48.690;12.362;2022-09-09T17:23:09;19.90;46.50
6672;DHT22;3372;48.690;12.362;2022-09-09T17:25:35;19.70;47.10
6672;DHT22;3372;48.690;12.362;2022-09-09T17:28:02;19.70;47.60
6672;DHT22;3372;48.690;12.362;2022-09-09T17:30:34;19.70;47.60
6672;DHT22;3372;48.690;12.362;2022-09-09T17:33:00;19.60;47.80
6672;DHT22;3372;48.690;12.362;2022-09-09T17:35:26;19.50;47.70
6672;DHT22;3372;48.690;12.362;2022-09-09T17:37:53;19.60;47.70
6672;DHT22;3372;48.690;12.362;2022-09-09T17:40:20;19.50;47.20